Time;durP1;ratioP1;P1;durP2;ratioP2;P2;SDS_P1;SDS_P2;PMS_P1;PMS_P2;Temp;Humidity;BMP_temperature;BMP_pressure;BME280_temperature;BME280_humidity;BME280_pressure;Samples;Min_cycle;Max_cycle;Signal;HPM_P1;HPM_P2
2021/12/14 00:00:46;;;;;;;54.27;37.20;;;3.20;90.40;;;;;;5050176;28;20293;-71
2021/12/14 00:03:17;;;;;;;54.97;36.77;;;3.10;90.40;;;;;;5019548;28;20208;-71
2021/12/14 00:05:45;;;;;;;54.20;35.30;;;3.10;90.40;;;;;;5038060;28;20215;-71
2021/12/14 00:08:14;;;;;;;60.70;36.97;;;3.10;90.40;;;;;;5039256;28;20246;-71
2021/12/14 00:11:08;;;;;;;55.00;36.60;;;3.10;90.40;;;;;;5031423;28;20670;-71
2021/12/14 00:16:11;;;;;;;53.60;33.37;;;3.10;90.60;;;;;;5025111;28;20611;-71
2021/12/14 00:18:39;;;;;;;47.83;33.40;;;3.10;90.60;;;;;;5045194;28;20222;-71
2021/12/14 00:21:20;;;;;;;48.80;33.77;;;3.10;90.60;;;;;;5044051;28;20235;-71
2021/12/14 00:24:07;;;;;;;54.83;34.93;;;3.10;90.50;;;;;;5037165;28;20281;-71
2021/12/14 00:26:37;;;;;;;53.20;35.10;;;3.00;90.30;;;;;;5048928;28;20211;-71
2021/12/14 00:29:07;;;;;;;53.30;33.10;;;3.00;90.30;;;;;;5025491;28;20238;-71
2021/12/14 00:31:36;;;;;;;51.70;34.43;;;3.00;90.30;;;;;;5033657;28;20267;-71
2021/12/14 00:34:06;;;;;;;51.83;34.20;;;2.90;90.10;;;;;;5052677;28;20225;-71
2021/12/14 00:36:35;;;;;;;56.97;34.97;;;2.90;90.10;;;;;;5031648;28;20313;-71
2021/12/14 00:39:12;;;;;;;46.53;32.90;;;2.80;90.10;;;;;;5022915;28;20216;-71
2021/12/14 00:41:41;;;;;;;53.47;36.10;;;2.80;90.10;;;;;;5046680;28;20210;-71
2021/12/14 00:44:09;;;;;;;48.53;32.93;;;2.80;90.10;;;;;;5033370;28;20211;-71
2021/12/14 00:46:38;;;;;;;49.63;34.43;;;2.80;90.20;;;;;;5041236;28;20274;-71
2021/12/14 00:49:12;;;;;;;51.50;33.97;;;2.80;90.30;;;;;;5027065;28;20233;-71
2021/12/14 00:51:40;;;;;;;56.73;37.37;;;2.80;90.40;;;;;;5036191;28;20215;-71
2021/12/14 00:54:12;;;;;;;47.37;33.50;;;2.80;90.50;;;;;;5012207;28;20576;-71
2021/12/14 00:56:46;;;;;;;50.73;33.80;;;2.80;90.50;;;;;;5035999;28;20225;-71
2021/12/14 00:59:14;;;;;;;59.53;35.57;;;2.80;90.50;;;;;;5026387;28;20223;-71
2021/12/14 01:01:59;;;;;;;51.27;33.03;;;2.80;90.60;;;;;;5041227;28;20296;-71
2021/12/14 01:04:51;;;;;;;57.47;36.30;;;2.80;90.60;;;;;;5038303;28;20671;-71
2021/12/14 01:07:22;;;;;;;51.20;34.37;;;2.90;90.60;;;;;;5033440;28;20302;-71
2021/12/14 01:09:52;;;;;;;51.37;35.03;;;2.80;90.60;;;;;;5002237;28;20723;-71
2021/12/14 01:12:35;;;;;;;46.17;31.83;;;2.80;90.70;;;;;;5017509;28;20315;-71
2021/12/14 01:15:22;;;;;;;56.80;37.37;;;2.80;90.70;;;;;;5033560;28;20215;-71
2021/12/14 01:20:51;;;;;;;47.27;32.67;;;2.90;90.90;;;;;;5024456;28;20223;-71
2021/12/14 01:23:29;;;;;;;53.07;33.93;;;2.90;90.80;;;;;;5031734;28;20220;-71
2021/12/14 01:26:02;;;;;;;54.50;35.43;;;2.90;90.40;;;;;;5018270;28;20216;-71
2021/12/14 01:28:31;;;;;;;50.03;35.13;;;2.80;90.30;;;;;;5007502;28;20231;-71
2021/12/14 01:33:31;;;;;;;45.60;31.67;;;2.80;90.50;;;;;;5046379;28;20203;-71
2021/12/14 01:36:02;;;;;;;50.40;33.23;;;2.70;90.40;;;;;;5039493;28;20206;-71
2021/12/14 01:41:03;;;;;;;48.97;31.57;;;2.60;90.30;;;;;;5031487;28;20211;-71
2021/12/14 01:43:33;;;;;;;52.63;33.77;;;2.60;90.20;;;;;;5037776;28;20310;-71
2021/12/14 01:46:14;;;;;;;48.67;33.37;;;2.60;90.30;;;;;;5027496;28;20235;-71
2021/12/14 01:48:42;;;;;;;50.37;33.17;;;2.60;90.50;;;;;;5039655;28;20245;-71
2021/12/14 01:51:25;;;;;;;56.00;36.40;;;2.60;90.60;;;;;;5035678;28;20229;-71
2021/12/14 01:53:59;;;;;;;49.73;34.17;;;2.60;90.70;;;;;;5010466;28;20705;-71
2021/12/14 01:56:29;;;;;;;46.90;32.60;;;2.60;90.80;;;;;;5036509;28;20307;-71
2021/12/14 01:59:05;;;;;;;50.90;32.53;;;2.60;90.70;;;;;;5019807;28;20217;-71
2021/12/14 02:01:45;;;;;;;51.00;34.80;;;2.60;90.50;;;;;;5037604;28;20558;-71
2021/12/14 02:04:18;;;;;;;49.73;33.20;;;2.60;90.50;;;;;;5033102;28;20221;-71
2021/12/14 02:07:00;;;;;;;52.03;34.40;;;2.60;90.50;;;;;;5038039;28;20263;-71
2021/12/14 02:09:30;;;;;;;51.33;33.27;;;2.50;90.60;;;;;;5028424;28;20321;-71
2021/12/14 02:12:06;;;;;;;60.00;38.53;;;2.50;90.50;;;;;;5035496;28;20211;-71
2021/12/14 02:14:35;;;;;;;60.07;38.40;;;2.50;90.60;;;;;;5029903;28;20207;-71
2021/12/14 02:17:06;;;;;;;48.47;31.03;;;2.50;90.80;;;;;;5035120;28;20215;-71
2021/12/14 02:19:34;;;;;;;51.47;34.37;;;2.50;90.90;;;;;;5023176;28;20561;-71
2021/12/14 02:22:04;;;;;;;58.53;33.43;;;2.60;91.00;;;;;;5037438;28;20215;-71
2021/12/14 02:24:32;;;;;;;52.33;34.13;;;2.60;90.90;;;;;;5027944;28;20215;-71
2021/12/14 02:27:00;;;;;;;53.03;34.60;;;2.50;90.90;;;;;;5024295;28;20221;-71
2021/12/14 02:29:34;;;;;;;48.03;33.10;;;2.60;91.00;;;;;;5036784;28;20238;-71
2021/12/14 02:32:12;;;;;;;56.93;31.17;;;2.60;91.10;;;;;;5029340;28;20244;-71
2021/12/14 02:34:50;;;;;;;51.47;31.77;;;2.60;91.20;;;;;;5025082;28;20214;-71
2021/12/14 02:37:23;;;;;;;51.27;33.53;;;2.60;91.30;;;;;;5023753;28;20203;-71
2021/12/14 02:40:03;;;;;;;48.93;32.63;;;2.70;91.30;;;;;;5032455;28;20296;-71
2021/12/14 02:42:32;;;;;;;53.50;31.83;;;2.70;91.30;;;;;;5036135;28;20243;-71
2021/12/14 02:45:00;;;;;;;46.23;32.77;;;2.70;91.20;;;;;;5029542;28;20284;-71
2021/12/14 02:47:28;;;;;;;48.63;33.37;;;2.70;91.10;;;;;;5028653;28;20231;-71
2021/12/14 02:49:55;;;;;;;56.73;32.47;;;2.70;91.00;;;;;;5036277;28;20212;-71
2021/12/14 02:52:32;;;;;;;50.87;30.60;;;2.60;90.90;;;;;;5036585;28;20218;-71
2021/12/14 02:55:13;;;;;;;60.70;32.43;;;2.60;90.80;;;;;;5010352;28;20210;-71
2021/12/14 02:57:45;;;;;;;52.87;29.33;;;2.60;90.80;;;;;;5027523;28;20538;-71
2021/12/14 03:00:18;;;;;;;48.10;29.53;;;2.60;90.80;;;;;;5035361;28;20238;-71
2021/12/14 03:02:45;;;;;;;45.10;28.70;;;2.60;90.90;;;;;;5033544;28;20208;-71
2021/12/14 03:05:20;;;;;;;53.70;29.57;;;2.50;90.90;;;;;;5023369;28;20208;-71
2021/12/14 03:07:53;;;;;;;51.87;28.57;;;2.50;90.90;;;;;;5032920;28;20217;-71
2021/12/14 03:10:38;;;;;;;41.70;25.57;;;2.50;90.80;;;;;;5029668;28;20710;-71
2021/12/14 03:13:09;;;;;;;41.50;26.30;;;2.50;90.80;;;;;;5027743;28;20252;-71
2021/12/14 03:15:48;;;;;;;44.90;26.03;;;2.50;90.60;;;;;;5040779;28;20222;-71
2021/12/14 03:18:23;;;;;;;49.47;27.13;;;2.40;90.60;;;;;;5025743;28;20545;-71
2021/12/14 03:20:57;;;;;;;46.70;27.13;;;2.40;90.60;;;;;;5036091;28;20219;-71
2021/12/14 03:23:50;;;;;;;41.00;25.00;;;2.30;90.60;;;;;;5046839;28;20289;-71
2021/12/14 03:26:22;;;;;;;45.90;26.23;;;2.30;90.70;;;;;;5042956;28;20212;-71
2021/12/14 03:28:53;;;;;;;41.73;26.47;;;2.30;90.70;;;;;;5035298;28;20223;-71
2021/12/14 03:31:33;;;;;;;39.90;25.30;;;2.20;90.70;;;;;;5036921;28;20242;-71
2021/12/14 03:34:12;;;;;;;38.80;25.93;;;2.20;90.70;;;;;;5047077;28;20211;-71
2021/12/14 03:37:12;;;;;;;40.47;26.10;;;2.20;90.80;;;;;;5034127;28;20674;-70
2021/12/14 03:39:49;;;;;;;41.53;23.47;;;2.20;90.80;;;;;;5018802;28;20560;-71
2021/12/14 03:42:25;;;;;;;37.90;25.07;;;2.20;90.90;;;;;;5026372;28;20216;-71
2021/12/14 03:44:57;;;;;;;37.53;24.63;;;2.20;91.00;;;;;;5036303;28;20217;-71
2021/12/14 03:47:35;;;;;;;37.97;23.17;;;2.20;90.80;;;;;;5035416;28;20215;-71
2021/12/14 03:50:26;;;;;;;39.37;25.07;;;2.20;90.70;;;;;;5023116;28;20241;-71
2021/12/14 03:52:55;;;;;;;36.30;23.97;;;2.20;90.60;;;;;;5035719;28;20300;-72
2021/12/14 03:55:30;;;;;;;37.60;25.27;;;2.20;90.60;;;;;;5026026;28;20214;-71
2021/12/14 03:57:58;;;;;;;36.00;23.93;;;2.10;90.60;;;;;;5003746;28;20212;-71
2021/12/14 04:00:33;;;;;;;39.27;24.37;;;2.10;90.50;;;;;;5020406;28;20652;-71
2021/12/14 04:03:05;;;;;;;40.03;23.93;;;2.10;90.50;;;;;;5034814;28;20223;-71
2021/12/14 04:05:53;;;;;;;40.20;24.17;;;2.10;90.60;;;;;;5026279;28;20603;-71
2021/12/14 04:08:25;;;;;;;37.27;23.57;;;2.10;90.60;;;;;;5036121;28;20218;-71
2021/12/14 04:10:54;;;;;;;38.40;23.73;;;2.10;90.60;;;;;;5032998;28;20565;-71
2021/12/14 04:13:26;;;;;;;37.47;24.50;;;2.10;90.70;;;;;;5031799;28;20682;-71
2021/12/14 04:15:58;;;;;;;35.23;23.50;;;2.00;90.70;;;;;;5017359;28;20207;-71
2021/12/14 04:18:28;;;;;;;38.37;24.37;;;2.00;90.70;;;;;;5027569;28;20241;-71
2021/12/14 04:20:58;;;;;;;38.30;24.07;;;2.00;90.50;;;;;;5016319;28;20211;-71
2021/12/14 04:23:35;;;;;;;38.33;25.20;;;2.00;90.50;;;;;;5037085;28;20218;-71
2021/12/14 04:26:06;;;;;;;37.17;23.67;;;1.90;90.40;;;;;;5024269;28;20293;-71
2021/12/14 04:28:39;;;;;;;39.57;22.60;;;1.90;90.50;;;;;;5036334;28;20235;-71
2021/12/14 04:31:07;;;;;;;36.17;23.87;;;1.90;90.50;;;;;;5018746;28;20284;-71
2021/12/14 04:33:37;;;;;;;37.23;23.30;;;1.90;90.50;;;;;;5003693;28;20235;-71
2021/12/14 04:36:10;;;;;;;37.47;22.47;;;1.90;90.60;;;;;;5025953;28;20211;-71
2021/12/14 04:38:48;;;;;;;37.43;23.13;;;1.90;90.60;;;;;;5030212;28;20270;-71
2021/12/14 04:52:31;;;;;;;37.00;22.13;;;1.90;91.00;;;;;;5018037;28;20243;-71
2021/12/14 04:55:05;;;;;;;32.90;21.53;;;2.00;91.00;;;;;;5036114;28;20211;-71
2021/12/14 04:57:41;;;;;;;31.83;22.30;;;2.00;90.90;;;;;;5022595;28;20243;-71
2021/12/14 05:00:25;;;;;;;33.03;20.73;;;2.00;90.80;;;;;;5038139;28;20219;-71
2021/12/14 05:03:24;;;;;;;31.83;21.27;;;2.00;90.70;;;;;;5028995;28;20219;-71
2021/12/14 05:06:09;;;;;;;34.03;22.13;;;1.90;90.50;;;;;;5022850;28;20218;-71
2021/12/14 05:11:14;;;;;;;30.93;21.17;;;1.90;90.50;;;;;;5030985;28;20310;-71
2021/12/14 05:13:48;;;;;;;31.57;21.20;;;1.90;90.60;;;;;;5020407;28;20307;-71
2021/12/14 05:16:28;;;;;;;29.40;19.63;;;1.90;90.70;;;;;;5037397;28;20215;-71
2021/12/14 05:19:01;;;;;;;28.83;19.97;;;1.90;90.70;;;;;;5029755;28;20214;-71
2021/12/14 05:21:45;;;;;;;28.27;19.43;;;2.00;90.80;;;;;;5022424;28;20239;-71
2021/12/14 05:24:18;;;;;;;31.90;20.60;;;2.00;90.80;;;;;;5040167;28;20225;-71
2021/12/14 05:27:06;;;;;;;28.00;20.27;;;2.00;90.80;;;;;;5034827;28;20217;-71
2021/12/14 05:29:40;;;;;;;31.37;19.53;;;2.00;91.10;;;;;;5031041;28;20238;-71
2021/12/14 05:32:10;;;;;;;30.43;18.00;;;2.00;90.70;;;;;;5028367;28;20243;-71
2021/12/14 05:34:41;;;;;;;31.73;18.80;;;2.00;90.70;;;;;;5016447;28;20235;-71
2021/12/14 05:37:12;;;;;;;29.63;19.37;;;2.10;90.60;;;;;;5037660;28;20234;-71
2021/12/14 05:39:48;;;;;;;27.20;18.87;;;2.10;90.50;;;;;;5035661;28;20241;-71
2021/12/14 05:45:32;;;;;;;32.53;20.07;;;2.00;90.40;;;;;;5038026;28;20308;-71
2021/12/14 05:48:01;;;;;;;27.83;19.33;;;2.00;90.40;;;;;;5023138;28;20221;-71
2021/12/14 05:50:38;;;;;;;31.70;18.70;;;2.10;90.50;;;;;;5030251;28;20244;-71
2021/12/14 05:53:08;;;;;;;26.03;18.10;;;2.00;90.50;;;;;;5035310;28;20231;-71
2021/12/14 05:55:40;;;;;;;31.90;19.13;;;2.10;90.50;;;;;;5018719;28;20212;-71
2021/12/14 05:58:17;;;;;;;29.40;18.60;;;2.00;90.50;;;;;;5037771;28;20539;-71
2021/12/14 06:00:50;;;;;;;25.60;18.17;;;2.00;90.50;;;;;;5043808;28;20215;-71
2021/12/14 06:03:27;;;;;;;30.13;19.03;;;2.00;90.40;;;;;;5034683;28;20658;-71
2021/12/14 06:05:56;;;;;;;26.83;18.87;;;2.00;90.50;;;;;;5038119;28;20214;-71
2021/12/14 06:08:30;;;;;;;26.73;19.33;;;2.00;90.60;;;;;;5012778;28;20219;-71
2021/12/14 06:11:09;;;;;;;26.03;18.97;;;2.00;90.70;;;;;;5031258;28;20567;-71
2021/12/14 06:13:42;;;;;;;33.93;19.87;;;2.00;90.70;;;;;;5027215;28;20211;-71
2021/12/14 06:16:33;;;;;;;28.20;19.37;;;2.00;90.70;;;;;;5037844;28;20663;-71
2021/12/14 06:19:13;;;;;;;24.77;18.33;;;2.00;90.80;;;;;;5009045;28;20242;-71
2021/12/14 06:21:42;;;;;;;28.13;18.00;;;2.00;90.80;;;;;;5044480;28;20211;-71
2021/12/14 06:24:11;;;;;;;29.90;19.43;;;2.00;90.70;;;;;;5033194;28;20214;-71
2021/12/14 06:26:48;;;;;;;29.43;18.33;;;2.00;90.70;;;;;;5037751;28;20214;-71
2021/12/14 06:29:28;;;;;;;26.90;18.57;;;2.00;90.80;;;;;;5022180;28;20342;-71
2021/12/14 06:32:04;;;;;;;29.07;18.43;;;2.00;90.70;;;;;;5043690;28;20246;-71
2021/12/14 06:34:31;;;;;;;26.90;18.10;;;2.00;90.70;;;;;;5028614;28;20204;-71
2021/12/14 06:37:28;;;;;;;32.23;18.90;;;2.00;90.70;;;;;;5038037;28;20273;-71
2021/12/14 06:39:59;;;;;;;29.47;18.67;;;2.00;90.80;;;;;;5033330;28;20214;-71
2021/12/14 06:42:26;;;;;;;27.63;17.30;;;2.10;90.90;;;;;;5027802;28;20215;-71
2021/12/14 06:45:16;;;;;;;31.50;19.13;;;2.10;90.90;;;;;;5034641;28;20234;-71
2021/12/14 06:47:46;;;;;;;24.93;16.67;;;2.10;91.00;;;;;;5027861;28;20282;-71
2021/12/14 06:50:18;;;;;;;27.43;18.00;;;2.20;91.00;;;;;;5040654;28;20254;-71
2021/12/14 06:53:05;;;;;;;25.63;18.40;;;2.20;90.90;;;;;;5028581;28;20210;-71
2021/12/14 06:55:54;;;;;;;23.40;16.00;;;2.20;90.90;;;;;;5044773;28;20221;-71
2021/12/14 06:59:05;;;;;;;24.57;16.20;;;2.20;90.90;;;;;;4978355;28;20318;-71
2021/12/14 07:01:58;;;;;;;26.37;17.10;;;2.20;90.80;;;;;;4966788;28;20222;-71
2021/12/14 07:04:32;;;;;;;28.47;17.57;;;2.30;90.80;;;;;;4996889;28;20218;-71
2021/12/14 07:07:04;;;;;;;25.80;17.90;;;2.20;90.80;;;;;;5013111;28;20220;-71
2021/12/14 07:09:41;;;;;;;23.73;16.20;;;2.30;90.80;;;;;;5024667;28;20686;-71
2021/12/14 07:12:14;;;;;;;24.07;16.50;;;2.30;90.80;;;;;;5046596;28;20229;-71
2021/12/14 07:14:49;;;;;;;24.70;17.20;;;2.30;90.80;;;;;;5027796;28;20306;-71
2021/12/14 07:17:20;;;;;;;25.03;17.23;;;2.30;90.80;;;;;;5034622;28;20233;-70
2021/12/14 07:19:59;;;;;;;21.93;15.93;;;2.30;90.90;;;;;;5042929;28;20218;-70
2021/12/14 07:22:29;;;;;;;28.90;17.93;;;2.40;90.90;;;;;;5041743;28;20236;-70
2021/12/14 07:25:01;;;;;;;28.97;16.83;;;2.40;90.90;;;;;;5047464;28;20232;-70
2021/12/14 07:27:30;;;;;;;23.23;16.20;;;2.40;90.80;;;;;;5047529;28;20207;-70
2021/12/14 07:30:22;;;;;;;26.20;17.37;;;2.50;90.80;;;;;;5036474;28;20238;-70
2021/12/14 07:33:02;;;;;;;29.63;18.70;;;2.60;90.80;;;;;;5041117;28;20601;-70
2021/12/14 07:35:33;;;;;;;25.53;17.70;;;2.60;90.60;;;;;;5045387;28;20204;-70
2021/12/14 07:38:22;;;;;;;24.47;17.60;;;2.70;90.60;;;;;;5028586;28;20243;-70
2021/12/14 07:40:58;;;;;;;26.17;17.50;;;2.80;90.50;;;;;;5016534;28;20640;-70
2021/12/14 07:43:50;;;;;;;22.83;16.60;;;2.80;90.40;;;;;;5044667;28;20233;-70
2021/12/14 07:46:25;;;;;;;28.97;17.93;;;2.90;90.40;;;;;;5028062;28;20218;-70
2021/12/14 07:49:00;;;;;;;22.03;15.47;;;2.90;90.30;;;;;;5034616;28;20297;-70
2021/12/14 07:51:31;;;;;;;25.93;16.27;;;3.00;90.20;;;;;;5038275;28;20522;-70
2021/12/14 07:54:08;;;;;;;24.57;16.20;;;3.10;90.00;;;;;;5047116;28;20198;-70
2021/12/14 07:56:57;;;;;;;24.40;16.07;;;3.20;90.00;;;;;;5045958;28;20227;-70
2021/12/14 07:59:31;;;;;;;23.47;15.87;;;3.20;89.90;;;;;;5014486;28;20232;-70
2021/12/14 08:02:34;;;;;;;21.00;16.77;;;3.30;89.80;;;;;;5050564;28;20550;-70
2021/12/14 08:05:27;;;;;;;24.07;15.93;;;3.30;89.70;;;;;;5028434;28;20720;-70
2021/12/14 08:08:09;;;;;;;22.57;15.53;;;3.40;89.70;;;;;;5025058;28;20259;-70
2021/12/14 08:10:45;;;;;;;23.80;16.17;;;3.50;89.60;;;;;;5001890;28;20313;-70
2021/12/14 08:13:20;;;;;;;23.33;16.43;;;3.60;89.50;;;;;;5038091;28;20580;-71
2021/12/14 08:15:54;;;;;;;23.20;16.53;;;3.70;89.30;;;;;;5025351;28;20744;-69
2021/12/14 08:18:27;;;;;;;25.33;16.47;;;3.80;89.00;;;;;;5035164;28;20211;-70
2021/12/14 08:21:05;;;;;;;23.77;16.67;;;3.80;88.90;;;;;;5019572;28;20225;-70
2021/12/14 08:23:34;;;;;;;25.40;17.83;;;3.90;88.70;;;;;;5042768;28;20219;-70
2021/12/14 08:26:19;;;;;;;24.87;17.70;;;4.00;88.50;;;;;;5026440;28;20212;-71
2021/12/14 08:28:48;;;;;;;24.27;17.00;;;4.10;88.40;;;;;;5015122;28;20231;-70
2021/12/14 08:31:16;;;;;;;21.37;16.47;;;4.20;88.20;;;;;;5050346;28;20227;-71
2021/12/14 08:33:44;;;;;;;22.63;16.93;;;4.20;88.00;;;;;;5026404;28;20212;-71
2021/12/14 08:36:13;;;;;;;24.77;17.93;;;4.30;87.80;;;;;;5026767;28;20221;-71
2021/12/14 08:38:41;;;;;;;27.87;17.97;;;4.40;87.50;;;;;;5034190;28;20281;-71
2021/12/14 08:41:18;;;;;;;22.50;18.13;;;4.40;87.30;;;;;;5040792;28;20277;-71
2021/12/14 08:43:48;;;;;;;28.20;18.80;;;4.50;87.10;;;;;;5012206;28;20556;-71
2021/12/14 08:46:30;;;;;;;24.63;17.53;;;4.50;86.90;;;;;;5038255;28;20239;-71
2021/12/14 08:49:03;;;;;;;27.17;19.87;;;4.60;86.60;;;;;;5023795;28;20212;-71
2021/12/14 08:51:35;;;;;;;26.27;20.20;;;4.70;86.60;;;;;;5038246;28;20287;-69
2021/12/14 08:54:12;;;;;;;28.47;19.93;;;4.70;86.50;;;;;;5039437;28;20638;-69
2021/12/14 08:56:44;;;;;;;25.73;19.90;;;4.80;86.50;;;;;;5006836;28;20284;-69
2021/12/14 08:59:12;;;;;;;25.93;21.17;;;4.90;86.50;;;;;;5042107;28;20228;-68
2021/12/14 09:01:42;;;;;;;26.97;22.43;;;4.90;86.40;;;;;;5021765;28;20224;-68
2021/12/14 09:04:31;;;;;;;26.40;22.57;;;5.00;86.20;;;;;;5019743;28;20217;-68
2021/12/14 09:07:07;;;;;;;28.20;22.23;;;5.10;86.20;;;;;;5043962;28;20204;-69
2021/12/14 09:09:36;;;;;;;31.67;22.43;;;5.20;86.10;;;;;;5022628;28;20323;-69
2021/12/14 09:12:09;;;;;;;32.93;23.90;;;5.30;85.90;;;;;;5021472;28;20220;-69
2021/12/14 09:14:40;;;;;;;31.57;22.97;;;5.30;85.70;;;;;;5029590;28;20220;-69
2021/12/14 09:17:09;;;;;;;33.47;24.23;;;5.40;85.60;;;;;;5023213;28;20711;-69
2021/12/14 09:19:49;;;;;;;34.07;24.70;;;5.50;85.50;;;;;;5044849;28;20561;-69
2021/12/14 09:22:25;;;;;;;30.23;24.23;;;5.60;85.20;;;;;;5004928;28;20225;-69
2021/12/14 09:24:54;;;;;;;39.83;26.50;;;5.60;84.90;;;;;;5042432;28;20213;-69
2021/12/14 09:27:26;;;;;;;33.70;25.83;;;5.70;84.80;;;;;;5045989;28;20650;-69
2021/12/14 09:29:55;;;;;;;36.03;26.40;;;5.80;84.70;;;;;;5041969;28;20241;-69
2021/12/14 09:32:27;;;;;;;34.23;25.93;;;5.80;84.50;;;;;;5018338;28;20295;-69
2021/12/14 09:34:58;;;;;;;39.07;27.77;;;5.90;84.60;;;;;;5033282;28;20209;-69
2021/12/14 09:37:28;;;;;;;34.83;27.03;;;6.00;84.60;;;;;;5024819;28;20218;-69
2021/12/14 09:40:03;;;;;;;39.50;29.03;;;6.10;84.50;;;;;;5042257;28;20210;-69
2021/12/14 09:42:32;;;;;;;35.50;28.80;;;6.10;84.30;;;;;;5022869;28;20216;-68
2021/12/14 09:45:08;;;;;;;37.80;28.47;;;6.20;84.10;;;;;;5039478;28;20221;-68
2021/12/14 09:47:36;;;;;;;37.53;27.87;;;6.30;83.80;;;;;;5039631;28;20224;-68
2021/12/14 09:50:12;;;;;;;37.37;29.07;;;6.40;83.60;;;;;;5029262;28;20539;-68
2021/12/14 09:52:40;;;;;;;35.90;27.27;;;6.50;83.30;;;;;;5034308;28;20557;-68
2021/12/14 09:55:13;;;;;;;36.97;28.57;;;6.60;83.20;;;;;;5052414;28;20215;-68
2021/12/14 09:57:45;;;;;;;38.57;28.50;;;6.60;83.20;;;;;;5027396;28;20309;-68
2021/12/14 10:00:29;;;;;;;37.23;28.27;;;6.70;83.20;;;;;;5031984;28;20259;-68
2021/12/14 10:02:59;;;;;;;35.37;27.47;;;6.70;83.20;;;;;;5047167;28;20225;-68
2021/12/14 10:05:33;;;;;;;47.60;28.90;;;6.80;83.10;;;;;;5055617;28;20271;-68
2021/12/14 10:08:03;;;;;;;40.93;31.60;;;6.90;83.00;;;;;;5027558;28;20236;-69
2021/12/14 10:10:36;;;;;;;38.67;30.90;;;6.90;82.90;;;;;;5028194;28;20225;-69
2021/12/14 10:13:04;;;;;;;40.87;30.03;;;7.00;82.90;;;;;;5046649;28;20706;-69
2021/12/14 10:15:39;;;;;;;38.93;28.50;;;7.00;82.70;;;;;;5038935;28;20293;-69
2021/12/14 10:18:12;;;;;;;38.80;28.70;;;7.00;82.70;;;;;;5024867;28;20220;-69
2021/12/14 10:20:49;;;;;;;38.60;28.47;;;7.00;82.60;;;;;;5047960;28;20235;-69
2021/12/14 10:23:18;;;;;;;37.60;28.73;;;7.10;82.70;;;;;;5042822;28;20288;-69
2021/12/14 10:25:46;;;;;;;40.83;29.87;;;7.10;82.70;;;;;;5045200;28;20295;-69
2021/12/14 10:28:14;;;;;;;33.80;28.67;;;7.20;82.70;;;;;;5047780;28;20637;-69
2021/12/14 10:30:53;;;;;;;35.80;29.60;;;7.20;82.60;;;;;;5011727;28;20739;-69
2021/12/14 10:33:22;;;;;;;42.07;30.10;;;7.30;82.70;;;;;;5025592;28;20265;-69
2021/12/14 10:35:56;;;;;;;43.23;32.40;;;7.30;82.70;;;;;;5048712;28;20224;-69
2021/12/14 10:38:35;;;;;;;48.57;33.43;;;7.40;82.70;;;;;;5023826;28;20224;-69
2021/12/14 10:44:02;;;;;;;42.20;32.23;;;7.40;81.50;;;;;;5024495;28;20242;-69
2021/12/14 10:46:45;;;;;;;46.73;33.07;;;7.30;81.90;;;;;;5017066;28;20211;-69
2021/12/14 10:49:18;;;;;;;45.37;35.20;;;7.30;82.50;;;;;;5029287;28;20209;-69
2021/12/14 10:51:49;;;;;;;49.03;35.77;;;7.40;83.20;;;;;;5035178;28;20288;-69
2021/12/14 10:54:18;;;;;;;45.83;34.00;;;7.40;82.50;;;;;;5026843;28;20206;-69
2021/12/14 10:56:54;;;;;;;53.73;36.47;;;7.50;82.60;;;;;;5045192;28;20600;-69
2021/12/14 10:59:27;;;;;;;48.77;35.33;;;7.50;82.80;;;;;;5036918;28;20208;-69
2021/12/14 11:01:55;;;;;;;47.97;35.30;;;7.60;82.80;;;;;;5047704;28;20214;-69
2021/12/14 11:04:37;;;;;;;47.37;35.40;;;7.70;82.40;;;;;;5044342;28;20665;-69
2021/12/14 11:07:11;;;;;;;44.77;35.30;;;7.80;82.00;;;;;;5020721;28;20660;-69
2021/12/14 11:09:42;;;;;;;47.37;35.87;;;8.00;82.50;;;;;;5023453;28;20844;-69
2021/12/14 11:12:18;;;;;;;45.17;35.10;;;8.10;82.60;;;;;;5046968;28;20217;-69
2021/12/14 11:14:48;;;;;;;48.00;37.67;;;8.30;82.10;;;;;;5024463;28;20211;-69
2021/12/14 11:20:11;;;;;;;45.17;34.40;;;8.50;81.00;;;;;;5022068;28;20250;-69
2021/12/14 11:23:02;;;;;;;44.77;36.77;;;8.50;80.40;;;;;;5024777;28;20214;-69
2021/12/14 11:25:40;;;;;;;50.40;37.10;;;8.60;80.40;;;;;;5023181;28;20216;-69
2021/12/14 11:28:13;;;;;;;50.80;39.57;;;8.70;80.90;;;;;;5028000;28;20216;-69
2021/12/14 11:31:03;;;;;;;49.67;38.17;;;8.80;81.10;;;;;;5045943;28;20389;-69
2021/12/14 11:33:37;;;;;;;47.70;36.57;;;9.00;81.10;;;;;;5039505;28;20313;-69
2021/12/14 11:36:34;;;;;;;45.97;37.40;;;9.20;80.90;;;;;;5028882;28;20241;-69
2021/12/14 11:39:09;;;;;;;45.87;36.70;;;9.30;80.50;;;;;;5013891;28;20230;-69
2021/12/14 11:41:53;;;;;;;47.63;37.43;;;9.50;79.80;;;;;;5021711;28;20223;-69
2021/12/14 11:44:23;;;;;;;48.63;37.93;;;9.50;79.30;;;;;;5045759;28;20223;-69
2021/12/14 11:47:58;;;;;;;47.67;36.63;;;9.50;79.40;;;;;;5020056;28;20269;-69
2021/12/14 11:50:14;;;;;;;47.57;38.13;;;9.50;78.90;;;;;;5025001;28;20229;-69
2021/12/14 11:52:51;;;;;;;46.63;37.17;;;9.60;78.90;;;;;;5034607;28;20239;-69
2021/12/14 11:55:36;;;;;;;52.17;37.97;;;9.60;78.80;;;;;;5022352;28;20566;-69
2021/12/14 11:58:33;;;;;;;48.87;39.93;;;9.70;79.00;;;;;;5040080;28;20210;-69
2021/12/14 12:01:26;;;;;;;49.63;39.40;;;9.80;79.00;;;;;;5043103;28;20298;-69
2021/12/14 12:04:10;;;;;;;52.80;39.70;;;9.80;78.50;;;;;;5028189;28;20576;-69
2021/12/14 12:09:45;;;;;;;47.83;37.77;;;9.80;78.00;;;;;;5035299;28;20219;-70
2021/12/14 12:12:32;;;;;;;47.30;38.77;;;9.80;78.10;;;;;;5036755;28;20227;-69
2021/12/14 12:15:18;;;;;;;48.33;39.27;;;9.70;77.90;;;;;;5040360;28;20204;-69
2021/12/14 12:17:59;;;;;;;48.87;39.03;;;9.70;77.90;;;;;;5025629;28;20214;-69
2021/12/14 12:20:41;;;;;;;46.73;37.30;;;9.70;78.10;;;;;;5025687;28;20211;-69
2021/12/14 12:23:29;;;;;;;47.03;37.60;;;9.70;78.20;;;;;;5022832;28;20212;-69
2021/12/14 12:26:07;;;;;;;47.60;37.67;;;9.80;78.30;;;;;;5041979;28;20220;-69
2021/12/14 12:28:43;;;;;;;50.77;38.57;;;9.80;78.40;;;;;;5020735;28;20271;-69
2021/12/14 12:31:16;;;;;;;48.63;37.83;;;9.90;78.10;;;;;;5042195;28;20698;-69
2021/12/14 12:33:54;;;;;;;43.40;35.33;;;10.00;78.10;;;;;;5043570;28;20281;-69
2021/12/14 12:36:30;;;;;;;45.43;35.37;;;10.00;77.90;;;;;;5037579;28;20549;-69
2021/12/14 12:39:00;;;;;;;46.07;36.43;;;10.10;77.80;;;;;;5039997;28;20329;-69
2021/12/14 12:41:58;;;;;;;46.50;35.33;;;10.10;77.80;;;;;;5043570;28;20218;-69
2021/12/14 12:44:39;;;;;;;42.27;34.80;;;10.00;77.70;;;;;;5041519;28;20321;-69
2021/12/14 12:47:12;;;;;;;47.83;34.33;;;10.10;77.80;;;;;;5042122;28;20211;-69
2021/12/14 12:49:41;;;;;;;46.37;34.37;;;10.20;77.60;;;;;;5028415;28;20208;-69
2021/12/14 12:52:26;;;;;;;39.97;33.77;;;10.20;77.40;;;;;;5021774;28;20664;-69
2021/12/14 12:55:11;;;;;;;40.73;32.90;;;10.30;77.10;;;;;;5022301;28;20630;-69
2021/12/14 12:57:58;;;;;;;42.90;33.03;;;10.40;77.10;;;;;;5007936;28;20224;-69
2021/12/14 13:00:38;;;;;;;43.27;31.70;;;10.40;77.00;;;;;;5041631;28;20221;-69
2021/12/14 13:03:32;;;;;;;40.43;30.40;;;10.40;76.70;;;;;;5043105;28;20222;-70
2021/12/14 13:06:10;;;;;;;38.00;30.53;;;10.40;76.70;;;;;;5041280;28;20233;-70
2021/12/14 13:08:45;;;;;;;37.37;31.23;;;10.50;76.70;;;;;;5027922;28;20225;-69
2021/12/14 13:11:12;;;;;;;37.97;31.90;;;10.50;76.60;;;;;;5041189;28;20666;-69
2021/12/14 13:13:47;;;;;;;41.37;31.50;;;10.50;76.50;;;;;;5044212;28;20231;-69
2021/12/14 13:16:20;;;;;;;41.63;32.63;;;10.60;76.40;;;;;;5036405;28;20547;-69
2021/12/14 13:18:58;;;;;;;40.53;33.50;;;10.60;76.20;;;;;;5027029;28;20296;-69
2021/12/14 13:21:40;;;;;;;39.90;31.73;;;10.60;76.00;;;;;;5020112;28;20256;-69
2021/12/14 13:24:19;;;;;;;43.03;32.97;;;10.70;76.00;;;;;;5036108;28;20214;-69
2021/12/14 13:27:08;;;;;;;43.00;32.33;;;10.60;75.80;;;;;;5037551;28;20231;-69
2021/12/14 13:29:46;;;;;;;46.57;34.13;;;10.60;75.70;;;;;;5041393;28;20234;-69
2021/12/14 13:32:37;;;;;;;46.07;32.67;;;10.60;75.60;;;;;;5025318;28;20270;-69
2021/12/14 13:35:10;;;;;;;43.17;33.53;;;10.60;75.50;;;;;;5043648;28;20242;-69
2021/12/14 13:37:39;;;;;;;43.07;33.60;;;10.50;75.70;;;;;;5031517;28;20221;-69
2021/12/14 13:40:13;;;;;;;44.57;33.53;;;10.50;75.90;;;;;;5046437;28;20211;-69
2021/12/14 13:43:01;;;;;;;47.13;34.90;;;10.50;76.10;;;;;;5028263;28;20742;-70
2021/12/14 13:45:37;;;;;;;43.73;34.60;;;10.40;76.10;;;;;;5035278;28;20207;-69
2021/12/14 13:48:07;;;;;;;47.30;36.33;;;10.40;76.10;;;;;;5048293;28;20299;-69
2021/12/14 13:50:40;;;;;;;47.40;34.77;;;10.40;76.10;;;;;;5035986;28;20318;-70
2021/12/14 13:53:09;;;;;;;48.60;36.73;;;10.40;76.10;;;;;;5036703;28;20214;-70
2021/12/14 13:55:44;;;;;;;51.67;37.10;;;10.40;76.30;;;;;;5047058;28;20318;-70